Time;durP1;ratioP1;P1;durP2;ratioP2;P2;SDS_P1;SDS_P2;PMS_P1;PMS_P2;Temp;Humidity;BMP_temperature;BMP_pressure;BME280_temperature;BME280_humidity;BME280_pressure;Samples;Min_cycle;Max_cycle;Signal;HPM_P1;HPM_P2
2022/09/09 00:01:14;;;;;;;68.85;21.27;;;;;;;16.91;100.00;96815.81;5067977;28;20028;-91
2022/09/09 00:03:51;;;;;;;47.03;19.52;;;;;;;16.98;100.00;96809.19;5076448;28;20040;-91
2022/09/09 00:06:35;;;;;;;193.20;24.73;;;;;;;16.89;100.00;96805.34;5065499;28;20035;-92
2022/09/09 00:09:15;;;;;;;65.32;20.23;;;;;;;16.94;100.00;96812.09;5061910;28;20063;-93
2022/09/09 00:12:03;;;;;;;57.08;19.60;;;;;;;16.66;100.00;96816.50;5059746;28;20051;-92
2022/09/09 00:14:44;;;;;;;91.03;21.65;;;;;;;16.73;100.00;96816.03;5058907;28;20484;-93
2022/09/09 00:17:23;;;;;;;59.47;21.15;;;;;;;16.94;100.00;96807.72;5061390;28;20036;-92
2022/09/09 00:20:00;;;;;;;77.97;21.58;;;;;;;16.73;100.00;96816.03;5060892;28;20051;-91
2022/09/09 00:22:30;;;;;;;102.65;23.40;;;;;;;16.70;100.00;96816.25;5079710;28;20024;-93
2022/09/09 00:25:10;;;;;;;69.57;21.50;;;;;;;16.84;100.00;96814.47;5059847;28;20040;-93
2022/09/09 00:27:46;;;;;;;69.75;22.15;;;;;;;17.26;100.00;96812.63;5051363;28;20124;-92
2022/09/09 00:30:23;;;;;;;150.43;23.65;;;;;;;16.96;100.00;96821.59;5063615;28;20084;-92
2022/09/09 00:33:01;;;;;;;48.67;20.33;;;;;;;17.02;100.00;96821.22;5077045;28;20035;-91
2022/09/09 00:35:40;;;;;;;42.30;20.48;;;;;;;17.08;100.00;96830.50;5054525;28;20036;-91
2022/09/09 00:38:32;;;;;;;41.47;18.80;;;;;;;16.89;100.00;96830.84;5057298;28;20431;-91
2022/09/09 00:41:11;;;;;;;43.47;18.92;;;;;;;16.83;100.00;96826.81;5063097;28;20028;-92
2022/09/09 00:43:40;;;;;;;39.70;16.92;;;;;;;17.26;100.00;96817.03;5064991;28;20032;-92
2022/09/09 00:46:23;;;;;;;45.38;18.13;;;;;;;16.79;100.00;96827.94;5079913;28;20115;-95
2022/09/09 00:49:16;;;;;;;37.78;17.45;;;;;;;17.22;100.00;96825.13;5059079;28;20103;-93
2022/09/09 00:52:06;;;;;;;40.25;17.75;;;;;;;16.89;100.00;96825.59;5065646;28;20052;-92
2022/09/09 00:54:50;;;;;;;40.65;17.58;;;;;;;17.19;100.00;96827.16;5070200;28;20055;-91
2022/09/09 00:57:23;;;;;;;40.55;17.27;;;;;;;16.86;100.00;96823.97;5073103;28;20037;-93
2022/09/09 00:59:58;;;;;;;33.42;16.90;;;;;;;17.05;100.00;96828.91;5064320;28;20033;-93
2022/09/09 01:02:39;;;;;;;42.80;17.67;;;;;;;17.04;100.00;96834.28;5084525;28;20457;-95
2022/09/09 01:05:13;;;;;;;37.42;17.02;;;;;;;17.03;100.00;96836.03;5051628;28;20021;-92
2022/09/09 01:07:44;;;;;;;41.15;16.83;;;;;;;17.11;100.00;96818.91;5062111;28;20039;-92
2022/09/09 01:10:30;;;;;;;39.92;17.23;;;;;;;16.72;100.00;96831.94;5060916;28;20024;-93
2022/09/09 01:13:02;;;;;;;40.47;18.55;;;;;;;17.00;100.00;96817.81;5050390;28;20040;-93
2022/09/09 01:15:31;;;;;;;34.60;15.70;;;;;;;17.25;100.00;96826.72;5061876;28;20032;-94
2022/09/09 01:18:10;;;;;;;39.42;17.50;;;;;;;17.21;100.00;96830.50;5065725;28;20040;-93
2022/09/09 01:21:25;;;;;;;37.97;16.60;;;;;;;17.20;100.00;96834.09;5061740;28;20036;-94
2022/09/09 01:24:20;;;;;;;37.20;15.98;;;;;;;17.22;100.00;96833.03;5052532;28;20415;-93
2022/09/09 01:26:48;;;;;;;34.25;16.35;;;;;;;17.32;100.00;96838.53;5064118;28;20391;-92
2022/09/09 01:29:16;;;;;;;33.53;16.80;;;;;;;17.09;100.00;96840.09;5065456;28;20072;-92
2022/09/09 01:32:00;;;;;;;34.60;16.42;;;;;;;17.11;100.00;96840.81;5058607;28;20496;-92
2022/09/09 01:34:32;;;;;;;35.05;16.23;;;;;;;17.03;100.00;96835.22;5058078;28;20102;-92
2022/09/09 01:37:10;;;;;;;34.00;15.63;;;;;;;16.74;100.00;96837.94;5069195;28;20063;-93
2022/09/09 01:39:38;;;;;;;33.88;15.23;;;;;;;16.78;100.00;96828.06;5062664;28;20028;-92
2022/09/09 01:42:07;;;;;;;35.28;15.73;;;;;;;16.97;100.00;96825.09;5065672;28;20027;-93
2022/09/09 01:44:35;;;;;;;33.33;15.15;;;;;;;16.96;100.00;96833.94;5060795;28;20115;-92
2022/09/09 01:47:01;;;;;;;33.53;15.45;;;;;;;16.92;100.00;96829.81;5060674;28;20032;-93
2022/09/09 01:49:26;;;;;;;35.22;15.35;;;;;;;17.08;100.00;96827.00;5063045;28;20039;-91
2022/09/09 01:51:55;;;;;;;33.75;15.25;;;;;;;17.05;100.00;96831.53;5068902;28;20614;-95
2022/09/09 01:54:22;;;;;;;39.22;16.33;;;;;;;17.05;100.00;96831.53;5074817;28;20044;-90
2022/09/09 01:57:15;;;;;;;35.15;15.38;;;;;;;17.11;100.00;96832.09;5062745;28;20717;-92
2022/09/09 02:00:00;;;;;;;39.23;16.70;;;;;;;16.71;100.00;96830.22;5053066;28;20086;-93
2022/09/09 02:03:07;;;;;;;36.67;15.88;;;;;;;17.05;100.00;96820.16;5057798;28;20288;-94
2022/09/09 02:05:44;;;;;;;42.08;16.67;;;;;;;17.19;100.00;96825.34;5006021;28;20048;-92
2022/09/09 02:08:23;;;;;;;45.55;17.70;;;;;;;17.91;100.00;96887.31;5002551;28;20072;-92
2022/09/09 02:10:58;;;;;;;39.38;16.95;;;;;;;16.79;100.00;96861.34;5014857;28;20034;-91
2022/09/09 02:13:25;;;;;;;42.08;17.08;;;;;;;16.41;100.00;96844.44;5017424;28;20073;-92
2022/09/09 02:15:57;;;;;;;37.47;15.93;;;;;;;16.60;100.00;96828.28;5000112;28;20038;-92
2022/09/09 02:18:47;;;;;;;39.38;17.52;;;;;;;16.40;100.00;96818.22;5017492;28;20025;-92
2022/09/09 02:21:14;;;;;;;36.78;16.38;;;;;;;16.86;100.00;96818.69;5014033;28;20107;-92
2022/09/09 02:23:44;;;;;;;41.30;17.05;;;;;;;16.59;100.00;96815.22;5018313;28;20060;-92
2022/09/09 02:26:13;;;;;;;41.92;16.70;;;;;;;16.62;100.00;96817.66;5008173;28;20040;-93
2022/09/09 02:28:40;;;;;;;37.30;16.00;;;;;;;16.33;100.00;96815.97;5024685;28;20030;-92
2022/09/09 02:31:06;;;;;;;38.85;15.93;;;;;;;16.49;100.00;96817.63;5021222;28;20029;-94
2022/09/09 02:33:39;;;;;;;35.53;15.98;;;;;;;16.64;100.00;96816.63;5024797;28;20212;-92
2022/09/09 02:36:09;;;;;;;36.05;15.50;;;;;;;16.83;100.00;96820.72;5010661;28;20132;-91
2022/09/09 02:38:40;;;;;;;31.65;15.00;;;;;;;16.72;100.00;96816.13;5015304;28;20044;-91
2022/09/09 02:41:07;;;;;;;31.77;14.60;;;;;;;16.78;100.00;96825.41;5022144;28;20057;-92
2022/09/09 02:43:34;;;;;;;34.95;14.90;;;;;;;16.68;100.00;96833.06;5052292;28;20095;-92
2022/09/09 02:46:56;;;;;;;34.13;14.50;;;;;;;16.46;100.00;96817.81;5063614;28;20461;-93
2022/09/09 02:49:54;;;;;;;31.63;14.25;;;;;;;16.42;100.00;96818.94;5048965;28;20044;-92
2022/09/09 02:52:32;;;;;;;37.35;15.23;;;;;;;16.35;100.00;96821.13;5042770;28;20044;-93
2022/09/09 02:55:12;;;;;;;34.28;14.50;;;;;;;16.34;100.00;96820.28;5056584;28;20059;-93
2022/09/09 02:57:39;;;;;;;35.83;14.73;;;;;;;16.43;100.00;96823.28;5041551;28;20036;-94
2022/09/09 03:00:11;;;;;;;34.65;14.73;;;;;;;16.42;100.00;96821.59;5058795;28;20554;-94
2022/09/09 03:02:37;;;;;;;29.85;13.98;;;;;;;16.67;100.00;96819.06;5058869;28;20504;-94
2022/09/09 03:05:02;;;;;;;37.05;13.90;;;;;;;16.56;100.00;96824.16;5054928;28;20040;-92
2022/09/09 03:07:28;;;;;;;28.42;14.48;;;;;;;16.67;100.00;96829.59;5051512;28;20102;-92
2022/09/09 03:09:54;;;;;;;30.08;14.10;;;;;;;16.54;100.00;96821.63;5049520;28;20047;-92
2022/09/09 03:12:26;;;;;;;32.28;15.50;;;;;;;16.59;100.00;96815.22;5057257;28;20063;-91
2022/09/09 03:14:51;;;;;;;36.28;14.45;;;;;;;16.71;100.00;96824.97;5059341;28;20115;-92
2022/09/09 03:17:17;;;;;;;35.13;15.25;;;;;;;16.55;100.00;96822.50;5046112;28;20574;-92
2022/09/09 03:19:42;;;;;;;32.90;14.35;;;;;;;16.52;100.00;96822.66;5057135;28;20032;-92
2022/09/09 03:22:11;;;;;;;34.83;15.45;;;;;;;16.84;100.00;96823.25;5065590;28;20469;-92
2022/09/09 03:24:36;;;;;;;34.95;16.23;;;;;;;16.47;100.00;96820.34;5065540;28;20074;-93
2022/09/09 03:27:02;;;;;;;39.65;15.57;;;;;;;16.47;100.00;96822.16;5058950;28;20041;-92
2022/09/09 03:29:27;;;;;;;34.45;16.15;;;;;;;16.54;100.00;96824.25;5064012;28;20040;-92
2022/09/09 03:31:53;;;;;;;37.72;15.35;;;;;;;16.70;100.00;96831.16;5067644;28;20369;-91
2022/09/09 03:34:18;;;;;;;35.45;15.98;;;;;;;16.53;100.00;96824.38;5065144;28;20024;-93
2022/09/09 03:36:44;;;;;;;37.38;16.50;;;;;;;16.81;100.00;96828.72;5065343;28;20494;-92
2022/09/09 03:39:09;;;;;;;33.05;15.07;;;;;;;16.86;100.00;96836.28;5058646;28;20034;-92
2022/09/09 03:41:37;;;;;;;33.97;15.07;;;;;;;17.10;100.00;96833.84;5072358;28;20024;-94
2022/09/09 03:44:02;;;;;;;36.85;15.63;;;;;;;16.76;100.00;96836.06;5066566;28;20424;-91
2022/09/09 03:46:31;;;;;;;37.83;16.38;;;;;;;17.16;100.00;96836.09;5066999;28;20036;-93
2022/09/09 03:48:57;;;;;;;38.97;14.50;;;;;;;16.99;100.00;96839.00;5056521;28;20057;-92
2022/09/09 03:51:22;;;;;;;34.65;14.48;;;;;;;16.47;100.00;96840.56;5066578;28;20048;-92
2022/09/09 03:53:48;;;;;;;53.13;16.55;;;;;;;16.68;100.00;96838.34;5068497;28;20514;-92
2022/09/09 03:56:15;;;;;;;42.40;15.20;;;;;;;16.59;100.00;96831.88;5072739;28;20409;-92
2022/09/09 03:58:41;;;;;;;45.38;16.38;;;;;;;16.93;100.00;96836.78;5070198;28;20028;-93
2022/09/09 04:01:08;;;;;;;54.75;15.65;;;;;;;16.79;100.00;96837.66;5065558;28;20551;-93
2022/09/09 04:03:34;;;;;;;154.85;19.98;;;;;;;16.47;100.00;96841.41;5068480;28;20036;-95
2022/09/09 04:06:02;;;;;;;34.78;14.60;;;;;;;16.56;100.00;96839.94;5066144;28;20439;-93
2022/09/09 04:08:31;;;;;;;28.88;13.30;;;;;;;16.48;100.00;96844.88;5064617;28;20031;-92
2022/09/09 04:10:57;;;;;;;30.60;14.07;;;;;;;16.42;100.00;96843.47;5065723;28;20017;-92
2022/09/09 04:13:24;;;;;;;27.58;12.73;;;;;;;16.62;100.00;96847.47;5066795;28;20089;-94
2022/09/09 04:15:56;;;;;;;23.83;12.20;;;;;;;16.84;100.00;96838.16;5076542;28;20032;-93
2022/09/09 04:18:23;;;;;;;22.58;11.25;;;;;;;16.17;100.00;96841.53;5065989;28;20391;-93
2022/09/09 04:20:50;;;;;;;26.63;12.05;;;;;;;16.29;100.00;96843.41;5058682;28;20028;-93
2022/09/09 04:23:18;;;;;;;25.45;11.98;;;;;;;16.69;100.00;96846.13;5059505;28;20089;-94
2022/09/09 04:25:49;;;;;;;27.10;12.20;;;;;;;16.93;100.00;96842.03;5064237;28;20465;-94
2022/09/09 04:28:15;;;;;;;27.27;12.10;;;;;;;16.64;100.00;96848.19;5064993;28;20035;-92
2022/09/09 04:30:41;;;;;;;25.13;11.63;;;;;;;16.22;100.00;96850.00;5063098;28;20122;-92
2022/09/09 04:33:08;;;;;;;24.30;11.88;;;;;;;16.53;100.00;96856.81;5057174;28;20020;-93
2022/09/09 04:35:34;;;;;;;22.00;11.60;;;;;;;16.55;100.00;96852.28;5062667;28;20049;-92
2022/09/09 04:37:59;;;;;;;27.23;11.40;;;;;;;16.45;100.00;96852.94;5064771;28;20026;-91
2022/09/09 04:40:25;;;;;;;24.27;11.10;;;;;;;16.65;100.00;96863.06;5067694;28;20566;-93
2022/09/09 04:42:51;;;;;;;26.08;11.57;;;;;;;16.89;100.00;96855.38;5062039;28;20112;-94
2022/09/09 04:45:16;;;;;;;28.42;11.45;;;;;;;17.04;100.00;96858.81;5069156;28;20048;-95
2022/09/09 04:47:42;;;;;;;25.05;10.73;;;;;;;17.22;100.00;96863.81;5065549;28;20610;-90
2022/09/09 04:50:08;;;;;;;20.95;10.52;;;;;;;17.44;100.00;96868.50;5053741;28;20024;-92
2022/09/09 04:52:35;;;;;;;25.90;11.43;;;;;;;17.36;100.00;96879.53;5064601;28;20032;-93
2022/09/09 04:55:01;;;;;;;21.88;10.63;;;;;;;17.19;100.00;96871.94;5060846;28;20044;-93
2022/09/09 04:57:28;;;;;;;25.15;11.65;;;;;;;17.60;100.00;96875.38;5060218;28;20028;-93
2022/09/09 04:59:54;;;;;;;28.73;11.70;;;;;;;17.58;100.00;96878.13;5055804;28;20056;-93
2022/09/09 05:02:20;;;;;;;24.55;11.85;;;;;;;17.60;100.00;96904.38;5062113;28;20046;-93
2022/09/09 05:04:45;;;;;;;24.15;10.82;;;;;;;17.90;100.00;96896.16;5057220;28;20586;-91
2022/09/09 05:07:11;;;;;;;24.17;11.02;;;;;;;17.80;100.00;96900.38;5060298;28;20116;-91
2022/09/09 05:09:36;;;;;;;27.15;12.00;;;;;;;17.69;100.00;96911.63;5056530;28;20041;-91
2022/09/09 05:12:02;;;;;;;25.88;11.93;;;;;;;17.66;100.00;96917.97;5063722;28;20027;-92
2022/09/09 05:14:29;;;;;;;37.28;12.93;;;;;;;17.30;100.00;96911.56;5057449;28;20118;-93
2022/09/09 05:16:56;;;;;;;28.33;13.02;;;;;;;17.38;100.00;96909.28;5063776;28;20056;-91
2022/09/09 05:19:21;;;;;;;24.55;12.45;;;;;;;17.28;100.00;96912.63;5066512;28;20027;-91
2022/09/09 05:21:47;;;;;;;29.58;13.07;;;;;;;17.10;100.00;96912.03;5053881;28;20033;-94
2022/09/09 05:24:12;;;;;;;26.52;13.32;;;;;;;17.15;100.00;96909.94;5061214;28;20033;-94
2022/09/09 05:26:38;;;;;;;25.15;12.00;;;;;;;17.16;100.00;96901.94;5059727;28;20116;-94
2022/09/09 05:29:03;;;;;;;27.65;11.77;;;;;;;17.00;100.00;96904.72;5054935;28;20435;-94
2022/09/09 05:31:30;;;;;;;26.17;12.60;;;;;;;16.95;100.00;96909.47;5060982;28;20468;-92
2022/09/09 05:33:55;;;;;;;27.85;12.40;;;;;;;16.86;100.00;96910.00;5061055;28;20035;-92
2022/09/09 05:36:22;;;;;;;31.45;12.00;;;;;;;17.80;100.00;96903.88;5064073;28;20028;-92
2022/09/09 05:38:47;;;;;;;28.70;12.40;;;;;;;17.31;100.00;96907.97;5083528;28;20043;-94
2022/09/09 05:41:17;;;;;;;30.50;12.63;;;;;;;17.57;100.00;96915.94;5062743;28;20028;-92
2022/09/09 05:43:48;;;;;;;35.00;14.57;;;;;;;17.86;100.00;96913.97;5062629;28;20435;-90
2022/09/09 05:46:19;;;;;;;26.30;11.88;;;;;;;17.65;100.00;96926.00;5064439;28;20066;-91
2022/09/09 05:48:46;;;;;;;25.05;11.95;;;;;;;17.77;100.00;96925.13;5056308;28;20036;-92
2022/09/09 05:51:15;;;;;;;28.55;12.50;;;;;;;17.21;100.00;96938.50;5067640;28;20029;-92
2022/09/09 05:53:41;;;;;;;27.38;11.85;;;;;;;17.77;100.00;96927.78;5063257;28;20033;-92
2022/09/09 05:56:18;;;;;;;29.20;12.65;;;;;;;16.69;100.00;96940.88;5061579;28;20048;-91
2022/09/09 05:58:44;;;;;;;31.92;14.00;;;;;;;16.81;100.00;96927.88;5064210;28;20069;-90
2022/09/09 06:01:13;;;;;;;28.80;13.60;;;;;;;16.66;100.00;96932.31;5067658;28;20046;-91
2022/09/09 06:03:41;;;;;;;30.58;13.57;;;;;;;16.63;100.00;96935.16;5062542;28;20365;-92
2022/09/09 06:06:09;;;;;;;27.90;13.52;;;;;;;17.52;100.00;96925.94;5066746;28;20024;-94
2022/09/09 06:08:36;;;;;;;31.05;14.23;;;;;;;17.01;100.00;96932.75;5068486;28;20391;-94
2022/09/09 06:11:11;;;;;;;33.13;14.55;;;;;;;16.54;100.00;96937.41;5083408;28;20376;-92
2022/09/09 06:13:38;;;;;;;36.88;14.88;;;;;;;16.80;100.00;96937.56;5072011;28;20021;-91
2022/09/09 06:16:07;;;;;;;34.40;15.43;;;;;;;17.09;100.00;96941.94;5070530;28;20068;-91
2022/09/09 06:18:32;;;;;;;37.47;15.40;;;;;;;16.63;100.00;96943.91;5068172;28;20033;-95
2022/09/09 06:21:04;;;;;;;39.33;16.08;;;;;;;16.84;100.00;96943.47;5068764;28;20024;-94
2022/09/09 06:23:30;;;;;;;34.10;15.48;;;;;;;16.76;100.00;96941.34;5069093;28;20051;-95
2022/09/09 06:26:06;;;;;;;37.22;15.20;;;;;;;17.08;100.00;96948.16;5068506;28;20020;-91
2022/09/09 06:28:36;;;;;;;32.70;15.75;;;;;;;17.06;100.00;96945.63;5082727;28;20500;-95
2022/09/09 06:31:07;;;;;;;39.08;16.95;;;;;;;16.82;100.00;96963.81;5067422;28;20036;-92
2022/09/09 06:33:40;;;;;;;35.45;16.25;;;;;;;17.06;100.00;96951.75;5070266;28;20075;-94
2022/09/09 06:36:11;;;;;;;33.58;15.02;;;;;;;17.18;100.00;96955.34;5066403;28;20032;-92
2022/09/09 06:38:37;;;;;;;33.00;15.30;;;;;;;17.36;100.00;96961.22;5067625;28;20051;-94
2022/09/09 06:41:14;;;;;;;34.63;15.57;;;;;;;17.40;100.00;96967.16;5066536;28;20520;-91
2022/09/09 06:43:39;;;;;;;32.75;15.73;;;;;;;17.59;100.00;96961.47;5067809;28;20029;-92
2022/09/09 06:46:09;;;;;;;31.85;14.80;;;;;;;17.14;100.00;96964.41;5065343;28;20387;-92
2022/09/09 06:48:34;;;;;;;31.42;14.43;;;;;;;17.18;100.00;96967.69;5054874;28;20434;-93
2022/09/09 06:51:13;;;;;;;28.38;14.10;;;;;;;16.99;100.00;96963.63;5056710;28;20043;-93
2022/09/09 06:53:40;;;;;;;29.50;13.48;;;;;;;16.94;100.00;96959.56;5060683;28;20047;-92
2022/09/09 06:56:11;;;;;;;27.33;12.85;;;;;;;17.11;100.00;96974.31;5063488;28;20421;-94
2022/09/09 06:58:42;;;;;;;29.25;13.85;;;;;;;17.17;100.00;96966.00;5061056;28;20067;-91
2022/09/09 07:01:14;;;;;;;31.73;13.13;;;;;;;16.92;100.00;96979.91;5069343;28;20020;-91
2022/09/09 07:03:42;;;;;;;33.00;14.05;;;;;;;17.16;100.00;96977.47;5061132;28;20424;-91
2022/09/09 07:06:13;;;;;;;30.42;14.18;;;;;;;17.20;100.00;96971.94;5060235;28;20056;-91
2022/09/09 07:08:39;;;;;;;28.85;13.48;;;;;;;17.01;100.00;96980.16;5046710;28;20090;-92
2022/09/09 07:11:06;;;;;;;30.23;14.02;;;;;;;17.30;100.00;96987.13;5055965;28;20029;-92
2022/09/09 07:13:32;;;;;;;30.38;13.63;;;;;;;17.21;100.00;96988.56;5056129;28;20024;-92
2022/09/09 07:16:06;;;;;;;34.08;14.25;;;;;;;17.28;100.00;96987.22;5062999;28;20096;-93
2022/09/09 07:18:31;;;;;;;34.97;13.88;;;;;;;17.30;100.00;96987.13;5058775;28;20025;-92
2022/09/09 07:20:57;;;;;;;29.05;14.60;;;;;;;17.39;100.00;96990.00;5076121;28;20098;-93
2022/09/09 07:23:23;;;;;;;33.28;14.00;;;;;;;17.39;100.00;96991.81;5061603;28;20040;-93
2022/09/09 07:25:50;;;;;;;33.20;14.68;;;;;;;17.14;100.00;96989.91;5061804;28;20036;-92
2022/09/09 07:28:16;;;;;;;37.45;15.43;;;;;;;17.01;100.00;96998.59;5063401;28;20081;-92
2022/09/09 07:30:42;;;;;;;35.53;13.93;;;;;;;17.16;100.00;96995.91;5066943;28;20540;-93
2022/09/09 07:33:09;;;;;;;33.00;14.10;;;;;;;17.36;100.00;96997.28;5055626;28;20056;-91
2022/09/09 07:35:36;;;;;;;31.17;13.98;;;;;;;17.25;100.00;96997.97;5062316;28;20027;-91
2022/09/09 07:38:03;;;;;;;27.23;12.50;;;;;;;17.15;100.00;97005.63;5063852;28;20037;-92
2022/09/09 07:40:28;;;;;;;30.55;13.77;;;;;;;17.31;100.00;96994.91;5066873;28;20114;-92
2022/09/09 07:42:54;;;;;;;30.02;12.70;;;;;;;17.38;100.00;97005.91;5064778;28;20947;-91
2022/09/09 07:45:20;;;;;;;27.17;12.05;;;;;;;17.68;100.00;97004.88;5060301;28;20034;-91
2022/09/09 07:47:45;;;;;;;25.08;12.35;;;;;;;17.51;100.00;97012.09;5065892;28;20051;-91
2022/09/09 07:50:59;;;;;;;27.85;12.13;;;;;;;17.74;100.00;97015.84;5083443;28;20067;-93
2022/09/09 07:53:26;;;;;;;30.00;12.27;;;;;;;17.39;100.00;97023.44;5059061;28;20058;-92
2022/09/09 07:55:51;;;;;;;27.00;12.23;;;;;;;17.55;100.00;97025.91;5058556;28;20036;-92
2022/09/09 07:58:17;;;;;;;24.20;11.50;;;;;;;17.15;100.00;97036.38;5063409;28;20392;-92
2022/09/09 08:00:43;;;;;;;27.35;12.38;;;;;;;17.43;100.00;97029.34;5060504;28;20036;-92
2022/09/09 08:03:08;;;;;;;52.58;14.32;;;;;;;17.44;100.00;97036.28;5057404;28;20059;-91
2022/09/09 08:05:34;;;;;;;23.10;11.50;;;;;;;17.16;100.00;97038.06;5065490;28;20029;-91
2022/09/09 08:08:00;;;;;;;27.08;11.05;;;;;;;17.30;100.00;97035.41;5061927;28;20401;-94
2022/09/09 08:10:25;;;;;;;28.40;11.98;;;;;;;17.61;100.00;97041.31;5062050;28;20051;-94
2022/09/09 08:12:52;;;;;;;26.05;11.23;;;;;;;17.50;100.00;97042.03;5063663;28;20033;-90
2022/09/09 08:15:18;;;;;;;24.48;11.07;;;;;;;17.84;100.00;97049.50;5055423;28;20082;-93
2022/09/09 08:17:43;;;;;;;25.08;10.85;;;;;;;17.12;100.00;97047.97;5057642;28;20036;-93
2022/09/09 08:20:09;;;;;;;19.95;9.95;;;;;;;17.08;100.00;97056.13;5063378;28;20032;-94
2022/09/09 08:22:34;;;;;;;21.83;9.38;;;;;;;17.37;100.00;97052.50;5056009;28;20037;-92
2022/09/09 08:25:00;;;;;;;21.33;8.82;;;;;;;17.42;100.00;97059.28;5058035;28;20024;-93
2022/09/09 08:27:25;;;;;;;21.70;9.50;;;;;;;17.31;100.00;97060.78;5061471;28;20028;-93
2022/09/09 08:29:51;;;;;;;20.38;9.18;;;;;;;17.77;100.00;97062.25;5058039;28;20024;-91
2022/09/09 08:32:17;;;;;;;18.45;8.90;;;;;;;17.49;100.00;97068.47;5064256;28;20025;-91
2022/09/09 08:34:43;;;;;;;19.45;8.82;;;;;;;17.91;100.00;97067.50;5067650;28;20032;-92
2022/09/09 08:37:08;;;;;;;17.95;7.85;;;;;;;17.97;100.00;97071.53;5063547;28;20024;-91
2022/09/09 08:39:34;;;;;;;18.33;7.80;;;;;;;18.48;100.00;97075.19;5061234;28;20090;-91
2022/09/09 08:42:02;;;;;;;15.23;7.32;;;;;;;18.12;100.00;97080.22;5058350;28;20153;-91
2022/09/09 08:45:00;;;;;;;17.00;6.97;;;;;;;18.01;100.00;97083.56;5058813;28;20510;-91
2022/09/09 08:48:07;;;;;;;16.92;6.93;;;;;;;18.34;100.00;97092.81;5055223;28;20555;-91
2022/09/09 08:50:38;;;;;;;19.13;6.95;;;;;;;18.30;100.00;97090.47;5064705;28;20095;-91
2022/09/09 08:53:24;;;;;;;18.20;6.97;;;;;;;18.00;100.00;97102.97;5070824;28;20453;-92
2022/09/09 08:56:03;;;;;;;14.13;6.55;;;;;;;17.87;100.00;97102.03;5052862;28;20401;-93
2022/09/09 08:58:32;;;;;;;15.65;6.97;;;;;;;17.53;100.00;97104.22;5053325;28;20061;-92
2022/09/09 09:01:08;;;;;;;18.70;7.82;;;;;;;17.54;100.00;97109.41;5056472;28;20109;-93
2022/09/09 09:04:02;;;;;;;16.88;7.38;;;;;;;17.45;100.00;97104.72;5062274;28;20724;-93
2022/09/09 09:06:35;;;;;;;14.75;6.68;;;;;;;17.64;100.00;97116.72;5046409;28;20472;-93
2022/09/09 09:09:05;;;;;;;;;;;;;;;18.01;100.00;97117.88;5062062;28;20530;-92
2022/09/09 09:11:53;;;;;;;18.20;6.75;;;;;;;17.36;100.00;97127.22;5056472;28;19960;-91
2022/09/09 09:14:25;;;;;;;18.73;7.28;;;;;;;17.69;100.00;97126.03;5059262;28;20070;-93
2022/09/09 09:16:57;;;;;;;15.10;6.40;;;;;;;18.05;100.00;97116.72;5060318;28;20036;-94
2022/09/09 09:19:25;;;;;;;13.32;6.22;;;;;;;18.67;100.00;97125.78;5070868;28;20089;-90
2022/09/09 09:22:03;;;;;;;16.38;5.95;;;;;;;18.64;100.00;97131.28;5063690;28;20043;-90
2022/09/09 09:24:46;;;;;;;12.70;5.10;;;;;;;18.11;100.00;97135.69;5062399;28;20025;-92
2022/09/09 09:27:15;;;;;;;12.20;4.82;;;;;;;18.27;100.00;97136.38;5057205;28;20032;-91
2022/09/09 09:29:43;;;;;;;13.65;4.47;;;;;;;18.31;100.00;97143.16;5064759;28;20118;-92
2022/09/09 09:32:14;;;;;;;12.40;4.35;;;;;;;18.60;100.00;97148.28;5055761;28;20032;-91
2022/09/09 09:34:39;;;;;;;11.95;3.72;;;;;;;18.18;100.00;97152.84;5057094;28;20186;-91
2022/09/09 09:37:20;;;;;;;11.48;4.38;;;;;;;17.85;100.00;97154.88;5058551;28;20654;-94
2022/09/09 09:39:45;;;;;;;12.75;4.50;;;;;;;17.78;100.00;97158.03;5062215;28;20028;-92
2022/09/09 09:42:17;;;;;;;11.73;4.80;;;;;;;18.16;100.00;97154.72;5062173;28;20048;-92
2022/09/09 09:44:43;;;;;;;11.13;4.38;;;;;;;18.08;100.00;97164.00;5054113;28;20020;-91
2022/09/09 09:47:16;;;;;;;10.75;3.90;;;;;;;17.70;100.00;97164.66;5063723;28;20071;-92
2022/09/09 09:50:00;;;;;;;11.77;3.92;;;;;;;18.11;100.00;97170.88;5060446;28;20039;-95
2022/09/09 09:52:29;;;;;;;11.60;3.63;;;;;;;18.22;100.00;97167.53;5057922;28;20036;-94
2022/09/09 09:54:59;;;;;;;11.82;3.63;;;;;;;18.24;100.00;97171.72;5066753;28;20048;-94
2022/09/09 09:57:31;;;;;;;11.10;3.42;;;;;;;17.83;100.00;97187.56;5055922;28;20043;-91
2022/09/09 10:00:05;;;;;;;8.70;3.00;;;;;;;18.40;100.00;97184.78;5076131;28;20044;-90
2022/09/09 10:02:40;;;;;;;10.07;3.08;;;;;;;19.39;100.00;97187.84;5069770;28;20036;-92
2022/09/09 10:05:11;;;;;;;11.02;3.40;;;;;;;19.23;100.00;97199.50;5057461;28;20037;-92
2022/09/09 10:07:38;;;;;;;9.50;2.65;;;;;;;19.09;100.00;97202.22;5069427;28;20032;-91
2022/09/09 10:10:04;;;;;;;10.98;3.15;;;;;;;19.60;100.00;97201.34;5055193;28;20121;-92
2022/09/09 10:12:48;;;;;;;8.02;2.85;;;;;;;19.74;100.00;97214.44;5055818;28;20032;-92
2022/09/09 10:15:35;;;;;;;8.65;2.88;;;;;;;19.44;100.00;97212.16;5054311;28;20064;-92
2022/09/09 10:18:16;;;;;;;11.20;2.72;;;;;;;18.99;100.00;97211.75;5084198;28;20032;-90
2022/09/09 10:21:00;;;;;;;11.80;2.63;;;;;;;19.60;100.00;97209.28;5061531;28;20066;-91
2022/09/09 10:24:11;;;;;;;11.68;2.70;;;;;;;21.01;100.00;97217.63;5054619;28;20077;-94
2022/09/09 10:27:01;;;;;;;9.55;2.20;;;;;;;20.35;100.00;97229.53;5057491;28;20032;-92
2022/09/09 10:29:37;;;;;;;9.90;2.10;;;;;;;20.60;100.00;97238.31;5057353;28;20182;-93
2022/09/09 10:32:27;;;;;;;10.98;2.75;;;;;;;20.14;100.00;97242.53;5056777;28;20055;-91
2022/09/09 10:35:02;;;;;;;10.90;2.80;;;;;;;19.78;100.00;97241.53;5060066;28;20048;-90
2022/09/09 10:37:28;;;;;;;9.82;2.58;;;;;;;20.56;100.00;97242.97;5058620;28;20051;-90
2022/09/09 10:40:11;;;;;;;10.90;3.10;;;;;;;21.42;100.00;97246.25;5061141;28;20725;-90
2022/09/09 10:42:37;;;;;;;8.95;2.30;;;;;;;20.72;100.00;97239.22;5050677;28;20120;-94
2022/09/09 10:45:34;;;;;;;8.35;2.35;;;;;;;20.66;100.00;97253.72;5059579;28;20111;-94
2022/09/09 10:48:13;;;;;;;8.95;2.00;;;;;;;20.50;100.00;97247.88;5081882;28;20040;-92
2022/09/09 10:51:18;;;;;;;7.35;2.00;;;;;;;20.71;100.00;97256.06;5064284;28;20091;-94
2022/09/09 10:54:03;;;;;;;8.27;1.83;;;;;;;20.96;100.00;97260.38;5063509;28;20082;-92
2022/09/09 10:56:31;;;;;;;8.45;1.90;;;;;;;21.33;100.00;97267.34;5060688;28;20037;-91
2022/09/09 10:59:10;;;;;;;8.55;1.58;;;;;;;21.21;100.00;97264.66;5058189;28;20138;-94
2022/09/09 11:01:44;;;;;;;9.48;1.77;;;;;;;21.01;100.00;97276.75;5062051;28;20031;-92
2022/09/09 11:04:27;;;;;;;9.27;1.90;;;;;;;21.21;100.00;97275.28;5059416;28;20028;-93
2022/09/09 11:06:55;;;;;;;8.80;1.73;;;;;;;21.26;100.00;97275.75;5065797;28;20400;-92
2022/09/09 11:09:31;;;;;;;7.60;1.85;;;;;;;21.16;100.00;97274.75;5055622;28;20068;-93
2022/09/09 11:12:01;;;;;;;8.77;2.20;;;;;;;20.64;100.00;97277.69;5064360;28;20120;-92
2022/09/09 11:14:41;;;;;;;7.93;1.80;;;;;;;20.99;100.00;97270.75;5082196;28;20020;-92
2022/09/09 11:17:24;;;;;;;10.45;1.77;;;;;;;20.26;100.00;97261.94;5057894;28;20260;-91
2022/09/09 11:19:50;;;;;;;8.02;1.67;;;;;;;21.04;100.00;97265.91;5047951;28;20029;-91
2022/09/09 11:22:36;;;;;;;8.35;1.90;;;;;;;21.47;100.00;97275.06;5059203;28;20040;-92
2022/09/09 11:25:40;;;;;;;9.20;2.15;;;;;;;21.37;100.00;97284.69;5090872;28;20549;-94
2022/09/09 11:28:28;;;;;;;8.27;2.20;;;;;;;21.94;100.00;97282.94;5067328;28;20044;-93
2022/09/09 11:31:15;;;;;;;7.47;2.00;;;;;;;21.82;100.00;97290.06;5071466;28;20059;-93
2022/09/09 11:34:12;;;;;;;8.10;2.00;;;;;;;22.21;100.00;97290.50;5066731;28;20036;-92
2022/09/09 11:37:04;;;;;;;9.32;1.73;;;;;;;21.45;100.00;97291.09;5063929;28;20509;-91